Time;durP1;ratioP1;P1;durP2;ratioP2;P2;SDS_P1;SDS_P2;PMS_P1;PMS_P2;Temp;Humidity;BMP_temperature;BMP_pressure;BME280_temperature;BME280_humidity;BME280_pressure;Samples;Min_cycle;Max_cycle;Signal;HPM_P1;HPM_P2
2022/08/15 00:00:40;;;;;;;13.65;9.20;;;;;;;;;;5111553;28;20099;-76
2022/08/15 00:03:16;;;;;;;15.82;8.50;;;;;;;;;;5109680;28;20414;-76
2022/08/15 00:05:42;;;;;;;12.20;8.40;;;;;;;;;;5111661;28;20016;-76
2022/08/15 00:08:08;;;;;;;12.23;8.70;;;;;;;;;;5111263;28;20024;-77
2022/08/15 00:10:35;;;;;;;14.20;9.20;;;;;;;;;;5110903;28;20491;-77
2022/08/15 00:13:09;;;;;;;15.70;9.00;;;;;;;;;;5111197;28;20036;-76
2022/08/15 00:16:35;;;;;;;15.00;10.02;;;;;;;;;;5111174;27;20846;-76
2022/08/15 00:19:54;;;;;;;13.27;9.35;;;;;;;;;;5111520;27;20397;-76
2022/08/15 00:22:20;;;;;;;14.52;9.77;;;;;;;;;;5126821;28;20031;-76
2022/08/15 00:24:47;;;;;;;14.10;9.90;;;;;;;;;;5111498;28;20055;-76
2022/08/15 00:27:13;;;;;;;17.50;9.57;;;;;;;;;;5111342;28;20047;-76
2022/08/15 00:29:39;;;;;;;14.65;10.07;;;;;;;;;;5110944;28;20027;-76
2022/08/15 00:34:18;;;;;;;14.82;10.93;;;;;;;;;;5111747;27;20393;-76
2022/08/15 00:36:48;;;;;;;14.43;10.57;;;;;;;;;;5110934;28;20020;-77
2022/08/15 00:39:15;;;;;;;15.80;10.60;;;;;;;;;;5111635;28;20031;-77
2022/08/15 00:41:42;;;;;;;14.80;10.57;;;;;;;;;;5109993;28;20028;-77
2022/08/15 00:44:14;;;;;;;15.90;11.20;;;;;;;;;;5110838;28;20379;-76
2022/08/15 00:48:41;;;;;;;14.40;10.10;;;;;;;;;;5174068;27;20106;-76
2022/08/15 00:50:43;;;;;;;15.57;11.27;;;;;;;;;;5141085;27;20043;-76
2022/08/15 00:53:10;;;;;;;14.68;10.20;;;;;;;;;;5152643;27;20352;-76
2022/08/15 00:55:38;;;;;;;14.68;10.02;;;;;;;;;;5152587;27;20068;-76
2022/08/15 01:00:47;;;;;;;15.23;11.20;;;;;;;;;;5111716;27;20393;-76
2022/08/15 01:03:18;;;;;;;16.35;10.95;;;;;;;;;;5111514;28;20468;-76
2022/08/15 01:05:46;;;;;;;16.98;11.25;;;;;;;;;;5111155;28;20054;-76
2022/08/15 01:10:31;;;;;;;16.35;11.82;;;;;;;;;;5111725;27;20750;-76
2022/08/15 01:13:20;;;;;;;17.92;12.25;;;;;;;;;;5111187;27;20418;-76
2022/08/15 01:22:16;;;;;;;17.00;11.38;;;;;;;;;;5111857;27;20450;-76
2022/08/15 01:24:52;;;;;;;16.38;11.45;;;;;;;;;;5111798;28;20543;-76
2022/08/15 01:28:23;;;;;;;15.95;11.23;;;;;;;;;;5111842;27;20389;-76
2022/08/15 01:30:55;;;;;;;14.45;9.95;;;;;;;;;;5111789;28;20054;-76
2022/08/15 01:33:22;;;;;;;14.75;10.68;;;;;;;;;;5111012;28;20028;-76
2022/08/15 01:39:55;;;;;;;16.05;12.00;;;;;;;;;;5111500;27;20422;-76
2022/08/15 01:42:24;;;;;;;17.20;12.05;;;;;;;;;;5111607;28;20028;-76
2022/08/15 01:44:53;;;;;;;18.50;12.65;;;;;;;;;;5110056;28;20073;-75
2022/08/15 01:47:23;;;;;;;16.35;11.82;;;;;;;;;;5110808;28;20059;-76
2022/08/15 01:50:12;;;;;;;16.17;11.65;;;;;;;;;;5111470;27;20450;-76
2022/08/15 01:52:53;;;;;;;18.85;13.35;;;;;;;;;;5111639;28;20476;-76
2022/08/15 01:55:21;;;;;;;16.13;11.55;;;;;;;;;;5111022;28;20362;-76
2022/08/15 01:57:47;;;;;;;16.40;11.82;;;;;;;;;;5111330;28;20027;-76
2022/08/15 02:00:50;;;;;;;15.90;11.00;;;;;;;;;;5111704;27;20392;-76
2022/08/15 02:03:16;;;;;;;14.75;10.18;;;;;;;;;;5110179;28;20484;-76
2022/08/15 02:05:43;;;;;;;15.90;10.80;;;;;;;;;;5111479;28;20051;-76
2022/08/15 02:09:41;;;;;;;18.02;10.38;;;;;;;;;;5111233;27;20392;-75
2022/08/15 02:13:27;;;;;;;15.45;10.65;;;;;;;;;;5111645;27;20433;-76
2022/08/15 02:17:34;;;;;;;16.13;12.05;;;;;;;;;;5112172;27;20530;-75
2022/08/15 02:20:46;;;;;;;16.00;11.35;;;;;;;;;;5112172;27;20410;-77
2022/08/15 02:23:12;;;;;;;17.42;12.07;;;;;;;;;;5110954;28;20016;-78
2022/08/15 02:27:07;;;;;;;18.88;14.00;;;;;;;;;;5112150;27;20758;-75
2022/08/15 02:29:34;;;;;;;19.20;12.93;;;;;;;;;;5110987;28;20032;-76
2022/08/15 02:32:05;;;;;;;17.73;12.23;;;;;;;;;;5111275;28;20077;-76
2022/08/15 02:37:21;;;;;;;20.70;12.23;;;;;;;;;;5194329;27;20112;-76
2022/08/15 02:39:48;;;;;;;14.75;11.70;;;;;;;;;;5173559;27;20022;-76
2022/08/15 02:42:15;;;;;;;20.05;13.30;;;;;;;;;;5173356;27;20022;-76
2022/08/15 02:44:42;;;;;;;18.10;13.02;;;;;;;;;;5173072;27;20023;-76
2022/08/15 02:47:09;;;;;;;16.88;11.77;;;;;;;;;;5154825;27;20018;-76
2022/08/15 02:49:36;;;;;;;16.55;11.20;;;;;;;;;;5173487;27;20019;-76
2022/08/15 02:52:03;;;;;;;16.30;11.52;;;;;;;;;;5172977;27;20375;-75
2022/08/15 02:56:56;;;;;;;18.98;12.23;;;;;;;;;;5112471;27;20422;-76
2022/08/15 03:01:57;;;;;;;17.00;12.18;;;;;;;;;;5111772;27;20404;-76
2022/08/15 03:04:24;;;;;;;18.65;13.27;;;;;;;;;;5111376;28;20051;-76
2022/08/15 03:06:53;;;;;;;17.98;12.60;;;;;;;;;;5110119;28;20421;-75
2022/08/15 03:09:20;;;;;;;16.30;12.15;;;;;;;;;;5111459;28;20107;-77
2022/08/15 03:12:48;;;;;;;22.73;13.30;;;;;;;;;;5111217;27;20426;-76
2022/08/15 03:16:50;;;;;;;19.45;12.15;;;;;;;;;;5111712;27;20384;-75
2022/08/15 03:20:23;;;;;;;19.55;13.82;;;;;;;;;;5090659;27;20402;-76
2022/08/15 03:22:50;;;;;;;19.42;14.32;;;;;;;;;;5091391;28;20082;-76
2022/08/15 03:25:17;;;;;;;18.13;13.20;;;;;;;;;;5090743;28;20412;-76
2022/08/15 03:27:43;;;;;;;18.58;13.18;;;;;;;;;;5091044;28;20070;-77
2022/08/15 03:30:41;;;;;;;18.25;12.35;;;;;;;;;;5112286;27;21120;-75
2022/08/15 03:33:08;;;;;;;19.60;13.75;;;;;;;;;;5111383;28;20024;-75
2022/08/15 03:35:39;;;;;;;18.65;12.80;;;;;;;;;;5111286;28;20027;-75
2022/08/15 03:38:05;;;;;;;18.52;12.52;;;;;;;;;;5111358;28;20476;-76
2022/08/15 03:40:32;;;;;;;17.15;11.68;;;;;;;;;;5110781;28;20035;-75
2022/08/15 03:43:00;;;;;;;17.10;11.90;;;;;;;;;;5111448;28;20024;-75
2022/08/15 03:45:27;;;;;;;16.98;12.10;;;;;;;;;;5111382;28;20024;-75
2022/08/15 03:49:40;;;;;;;19.00;13.30;;;;;;;;;;5111747;27;20423;-75
2022/08/15 03:55:38;;;;;;;15.23;10.52;;;;;;;;;;5111453;27;20456;-76
2022/08/15 03:58:24;;;;;;;15.98;10.80;;;;;;;;;;5111953;27;20381;-76
2022/08/15 04:00:50;;;;;;;14.63;10.02;;;;;;;;;;5110941;28;20020;-76
2022/08/15 04:03:18;;;;;;;16.17;11.30;;;;;;;;;;5111541;28;20022;-76
2022/08/15 04:06:41;;;;;;;15.07;10.13;;;;;;;;;;5112114;27;20418;-76
2022/08/15 04:10:27;;;;;;;17.08;11.90;;;;;;;;;;5111734;27;20401;-76
2022/08/15 04:12:54;;;;;;;19.70;12.32;;;;;;;;;;5111403;28;20026;-76
2022/08/15 04:19:01;;;;;;;15.70;10.88;;;;;;;;;;5111641;27;20430;-76
2022/08/15 04:21:27;;;;;;;17.90;10.35;;;;;;;;;;5111229;28;20066;-76
2022/08/15 04:23:53;;;;;;;14.98;10.02;;;;;;;;;;5111332;28;20028;-76
2022/08/15 04:26:19;;;;;;;15.60;10.57;;;;;;;;;;5111248;28;20015;-76
2022/08/15 04:28:46;;;;;;;23.13;12.02;;;;;;;;;;5109566;28;20023;-76
2022/08/15 04:32:16;;;;;;;16.88;11.05;;;;;;;;;;5111520;27;20633;-75
2022/08/15 04:34:42;;;;;;;18.13;11.18;;;;;;;;;;5111365;28;20019;-75
2022/08/15 04:37:09;;;;;;;18.98;10.80;;;;;;;;;;5109474;28;20034;-76
2022/08/15 04:39:35;;;;;;;21.08;11.18;;;;;;;;;;5111313;28;20020;-76
2022/08/15 04:42:01;;;;;;;15.30;10.65;;;;;;;;;;5111808;28;20479;-76
2022/08/15 04:44:28;;;;;;;17.77;11.15;;;;;;;;;;5109597;28;20028;-76
2022/08/15 04:49:49;;;;;;;15.23;10.77;;;;;;;;;;5111377;27;20389;-76
2022/08/15 04:54:02;;;;;;;16.55;11.02;;;;;;;;;;5112211;27;20396;-76
2022/08/15 04:56:41;;;;;;;15.32;10.65;;;;;;;;;;5110987;27;20455;-76
2022/08/15 04:59:52;;;;;;;14.98;10.23;;;;;;;;;;5111888;27;20385;-76
2022/08/15 05:03:20;;;;;;;15.77;11.20;;;;;;;;;;5173837;27;20106;-76
2022/08/15 05:05:52;;;;;;;16.33;11.25;;;;;;;;;;5152147;27;20033;-80
2022/08/15 05:10:16;;;;;;;17.30;12.13;;;;;;;;;;5107626;27;20469;-76
2022/08/15 05:12:43;;;;;;;15.15;10.63;;;;;;;;;;5109959;28;20020;-80
2022/08/15 05:15:13;;;;;;;16.10;10.93;;;;;;;;;;5109610;28;20028;-79
2022/08/15 05:17:40;;;;;;;15.95;11.45;;;;;;;;;;5109479;28;20583;-76
2022/08/15 05:21:25;;;;;;;16.88;10.77;;;;;;;;;;5111493;27;20388;-80
2022/08/15 05:24:59;;;;;;;14.98;10.48;;;;;;;;;;5086763;27;20419;-79
2022/08/15 05:29:06;;;;;;;14.77;10.48;;;;;;;;;;5112171;27;20401;-82
2022/08/15 05:31:33;;;;;;;16.48;10.90;;;;;;;;;;5111180;28;20336;-82
2022/08/15 05:34:03;;;;;;;13.60;10.10;;;;;;;;;;5095062;28;20063;-82
2022/08/15 05:38:16;;;;;;;16.08;9.68;;;;;;;;;;5071660;28;20422;-81
2022/08/15 05:40:45;;;;;;;13.90;9.63;;;;;;;;;;5071531;28;20028;-77
2022/08/15 05:44:43;;;;;;;12.27;9.05;;;;;;;;;;5113273;27;20112;-86
2022/08/15 05:51:13;;;;;;;12.57;9.60;;;;;;;;;;5072271;28;20392;-85
2022/08/15 05:56:37;;;;;;;15.70;11.45;;;;;;;;;;5110805;27;20389;-80
2022/08/15 05:59:05;;;;;;;15.45;10.57;;;;;;;;;;5098354;28;20062;-80
2022/08/15 06:01:40;;;;;;;13.85;10.20;;;;;;;;;;5115473;28;20016;-78
2022/08/15 06:06:19;;;;;;;14.40;9.63;;;;;;;;;;5130159;27;20352;-81
2022/08/15 06:08:48;;;;;;;14.02;9.77;;;;;;;;;;5109575;28;20016;-85
2022/08/15 06:11:16;;;;;;;15.48;10.32;;;;;;;;;;5090021;28;20082;-76
2022/08/15 06:13:48;;;;;;;13.77;9.38;;;;;;;;;;5098935;28;20039;-76
2022/08/15 06:18:10;;;;;;;15.18;10.63;;;;;;;;;;5110284;27;20392;-81
2022/08/15 06:20:45;;;;;;;13.77;10.45;;;;;;;;;;5109107;28;20024;-80
2022/08/15 06:23:23;;;;;;;14.18;9.68;;;;;;;;;;5111076;28;20073;-77
2022/08/15 06:29:11;;;;;;;15.68;9.25;;;;;;;;;;5102019;27;20868;-75
2022/08/15 06:33:06;;;;;;;13.98;10.68;;;;;;;;;;5110090;27;20426;-76
2022/08/15 06:35:39;;;;;;;14.38;9.43;;;;;;;;;;5111095;28;20069;-76
2022/08/15 06:38:48;;;;;;;13.70;8.93;;;;;;;;;;5070549;28;20927;-74
2022/08/15 06:41:30;;;;;;;12.20;7.95;;;;;;;;;;5066112;28;20063;-76
2022/08/15 06:45:42;;;;;;;11.13;7.65;;;;;;;;;;5111383;27;20446;-75
2022/08/15 06:48:11;;;;;;;11.63;8.25;;;;;;;;;;5112313;28;20468;-73
2022/08/15 06:50:39;;;;;;;14.50;8.85;;;;;;;;;;5122144;28;20012;-76
2022/08/15 06:53:23;;;;;;;13.20;8.27;;;;;;;;;;5110267;28;20506;-77
2022/08/15 06:55:52;;;;;;;12.20;7.70;;;;;;;;;;5109659;28;20103;-77
2022/08/15 06:58:39;;;;;;;12.35;8.13;;;;;;;;;;5106591;28;20539;-75
2022/08/15 07:03:34;;;;;;;10.60;7.03;;;;;;;;;;5079827;28;20378;-76
2022/08/15 07:08:22;;;;;;;11.48;7.80;;;;;;;;;;5171678;27;20152;-75
2022/08/15 07:10:52;;;;;;;11.27;7.75;;;;;;;;;;5149866;27;20019;-74
2022/08/15 07:13:21;;;;;;;11.82;7.63;;;;;;;;;;5136129;27;20037;-74
2022/08/15 07:16:13;;;;;;;11.95;7.43;;;;;;;;;;5122557;27;20027;-73
2022/08/15 07:18:44;;;;;;;12.15;7.75;;;;;;;;;;5125405;27;20027;-72
2022/08/15 07:22:11;;;;;;;11.25;6.93;;;;;;;;;;5068210;28;20425;-71
2022/08/15 07:25:44;;;;;;;11.32;7.63;;;;;;;;;;5070205;28;20596;-70
2022/08/15 07:28:11;;;;;;;10.32;6.95;;;;;;;;;;5063701;28;20082;-70
2022/08/15 07:30:47;;;;;;;10.15;6.80;;;;;;;;;;5069228;28;20029;-71
2022/08/15 07:33:32;;;;;;;10.13;6.82;;;;;;;;;;5070134;28;20031;-72
2022/08/15 07:36:07;;;;;;;10.13;6.78;;;;;;;;;;5070374;28;20380;-71
2022/08/15 07:38:33;;;;;;;11.52;6.90;;;;;;;;;;5070297;28;20028;-72
2022/08/15 07:41:14;;;;;;;10.75;6.40;;;;;;;;;;5070278;28;20021;-74
2022/08/15 07:43:40;;;;;;;10.85;5.93;;;;;;;;;;5069744;28;20037;-72
2022/08/15 07:46:12;;;;;;;12.73;6.40;;;;;;;;;;5069824;28;20059;-73
2022/08/15 07:48:39;;;;;;;12.07;7.18;;;;;;;;;;5063061;28;20025;-71
2022/08/15 07:51:14;;;;;;;12.65;6.82;;;;;;;;;;5059715;28;20120;-74
2022/08/15 07:54:01;;;;;;;11.85;6.85;;;;;;;;;;5054520;28;20362;-70
2022/08/15 07:58:24;;;;;;;9.95;6.72;;;;;;;;;;5110641;27;21222;-73
2022/08/15 08:02:29;;;;;;;10.43;6.90;;;;;;;;;;5110574;27;20397;-72
2022/08/15 08:04:56;;;;;;;10.60;6.50;;;;;;;;;;5097141;28;20099;-75
2022/08/15 08:07:31;;;;;;;9.65;6.13;;;;;;;;;;5096325;28;20036;-72
2022/08/15 08:14:28;;;;;;;11.60;6.90;;;;;;;;;;5080634;27;21008;-74
2022/08/15 08:17:02;;;;;;;10.18;7.30;;;;;;;;;;5074760;28;20028;-71
2022/08/15 08:19:31;;;;;;;10.63;7.25;;;;;;;;;;5070313;28;20508;-72
2022/08/15 08:23:55;;;;;;;9.57;6.53;;;;;;;;;;5152488;27;20374;-71
2022/08/15 08:26:27;;;;;;;10.38;5.57;;;;;;;;;;5151639;27;20019;-76
2022/08/15 08:29:12;;;;;;;10.27;6.65;;;;;;;;;;5149753;27;20018;-75
2022/08/15 08:31:47;;;;;;;11.55;7.03;;;;;;;;;;5148800;27;20024;-72
2022/08/15 08:34:27;;;;;;;10.00;6.65;;;;;;;;;;5148577;27;20095;-79
2022/08/15 08:36:59;;;;;;;10.35;7.00;;;;;;;;;;5148327;27;20475;-78
2022/08/15 08:39:25;;;;;;;9.30;5.80;;;;;;;;;;5148500;27;20039;-75
2022/08/15 08:41:57;;;;;;;8.80;6.40;;;;;;;;;;5148413;27;20446;-77
2022/08/15 08:44:39;;;;;;;9.55;6.45;;;;;;;;;;5149259;27;20018;-77
2022/08/15 08:47:30;;;;;;;9.95;6.28;;;;;;;;;;5108892;27;20660;-73
2022/08/15 08:50:58;;;;;;;9.57;6.32;;;;;;;;;;5094265;27;20424;-72
2022/08/15 08:53:32;;;;;;;9.02;6.53;;;;;;;;;;5088867;28;20024;-75
2022/08/15 08:56:25;;;;;;;17.20;6.50;;;;;;;;;;5085890;28;20024;-74
2022/08/15 08:58:56;;;;;;;9.98;6.38;;;;;;;;;;5071839;28;20551;-73
2022/08/15 09:01:25;;;;;;;10.77;6.32;;;;;;;;;;5089743;28;20028;-75
2022/08/15 09:03:54;;;;;;;9.90;6.53;;;;;;;;;;5084404;28;20028;-74
2022/08/15 09:06:24;;;;;;;10.55;7.57;;;;;;;;;;5088899;28;20032;-75
2022/08/15 09:08:53;;;;;;;10.77;6.20;;;;;;;;;;5090112;28;20032;-76
2022/08/15 09:11:24;;;;;;;9.77;6.80;;;;;;;;;;5088612;28;20035;-77
2022/08/15 09:13:51;;;;;;;10.88;6.10;;;;;;;;;;5089968;28;20035;-75
2022/08/15 09:16:21;;;;;;;10.20;6.60;;;;;;;;;;5090395;28;20024;-74
2022/08/15 09:19:00;;;;;;;12.70;8.25;;;;;;;;;;5088979;28;20475;-78
2022/08/15 09:21:26;;;;;;;9.75;6.60;;;;;;;;;;5090599;28;20103;-79
2022/08/15 09:23:54;;;;;;;10.50;6.55;;;;;;;;;;5089925;28;20028;-78
2022/08/15 09:26:40;;;;;;;9.50;6.57;;;;;;;;;;5089011;28;20024;-78
2022/08/15 09:29:06;;;;;;;9.07;6.10;;;;;;;;;;5090232;28;20427;-76
2022/08/15 09:32:25;;;;;;;9.43;6.28;;;;;;;;;;5108496;27;20404;-76
2022/08/15 09:35:07;;;;;;;8.95;6.38;;;;;;;;;;5111092;28;20022;-75
2022/08/15 09:37:39;;;;;;;13.73;5.93;;;;;;;;;;5095149;28;20433;-74
2022/08/15 09:40:18;;;;;;;8.77;5.80;;;;;;;;;;5102037;28;20032;-77
2022/08/15 09:42:57;;;;;;;8.57;6.15;;;;;;;;;;5079369;28;20036;-73
2022/08/15 09:48:52;;;;;;;8.43;5.93;;;;;;;;;;5104098;27;20409;-78
2022/08/15 09:51:37;;;;;;;9.38;6.55;;;;;;;;;;5107097;28;20030;-74
2022/08/15 09:54:07;;;;;;;15.13;5.90;;;;;;;;;;5098462;28;20028;-69
2022/08/15 09:56:36;;;;;;;9.57;5.82;;;;;;;;;;5099755;28;20023;-74
2022/08/15 09:59:05;;;;;;;9.10;6.63;;;;;;;;;;5107783;28;20110;-73
2022/08/15 10:01:32;;;;;;;10.45;7.20;;;;;;;;;;5109044;28;20020;-73
2022/08/15 10:03:58;;;;;;;10.48;7.55;;;;;;;;;;5103587;28;20033;-72
2022/08/15 10:06:30;;;;;;;12.20;7.72;;;;;;;;;;5109483;28;20016;-72
2022/08/15 10:11:12;;;;;;;11.50;7.47;;;;;;;;;;5110901;27;20381;-73
2022/08/15 10:13:42;;;;;;;9.50;6.97;;;;;;;;;;5106265;28;20464;-72
2022/08/15 10:16:27;;;;;;;9.80;6.57;;;;;;;;;;5103365;28;20452;-72
2022/08/15 10:18:55;;;;;;;9.48;5.80;;;;;;;;;;5101473;28;20028;-71
2022/08/15 10:21:23;;;;;;;11.02;6.72;;;;;;;;;;5105961;28;20059;-71
2022/08/15 10:23:50;;;;;;;10.70;6.20;;;;;;;;;;5101332;28;20034;-70
2022/08/15 10:26:20;;;;;;;11.77;6.95;;;;;;;;;;5103163;28;20471;-72
2022/08/15 10:29:00;;;;;;;8.25;5.82;;;;;;;;;;5098427;28;20020;-73
2022/08/15 10:31:44;;;;;;;10.90;6.90;;;;;;;;;;5109129;28;20039;-74
2022/08/15 10:34:19;;;;;;;8.98;5.50;;;;;;;;;;5102683;28;20020;-72
2022/08/15 10:37:04;;;;;;;8.65;6.05;;;;;;;;;;5099976;28;20026;-74
2022/08/15 10:39:39;;;;;;;10.05;5.82;;;;;;;;;;5105320;28;20632;-72
2022/08/15 10:42:23;;;;;;;9.88;6.20;;;;;;;;;;5101072;28;20025;-73
2022/08/15 10:45:00;;;;;;;10.05;6.15;;;;;;;;;;5106213;28;20028;-72
2022/08/15 10:47:32;;;;;;;8.60;5.70;;;;;;;;;;5102907;28;20032;-71
2022/08/15 10:50:14;;;;;;;8.48;5.97;;;;;;;;;;5106976;28;20036;-76
2022/08/15 10:53:16;;;;;;;9.00;5.88;;;;;;;;;;5106872;28;20111;-73
2022/08/15 10:55:42;;;;;;;9.05;6.28;;;;;;;;;;5044612;28;20561;-75
2022/08/15 10:58:09;;;;;;;9.93;6.38;;;;;;;;;;5095504;28;20036;-77
2022/08/15 11:00:41;;;;;;;9.68;6.47;;;;;;;;;;5108029;28;20012;-77
2022/08/15 11:03:20;;;;;;;8.55;5.57;;;;;;;;;;5107471;28;20047;-78
2022/08/15 11:05:56;;;;;;;8.10;5.20;;;;;;;;;;5107958;28;20027;-75
2022/08/15 11:08:23;;;;;;;9.18;5.60;;;;;;;;;;5106386;28;20051;-76
2022/08/15 11:10:49;;;;;;;8.32;5.07;;;;;;;;;;5106068;28;20548;-76
2022/08/15 11:13:17;;;;;;;8.00;5.40;;;;;;;;;;5107913;28;20403;-77
2022/08/15 11:15:54;;;;;;;8.73;4.45;;;;;;;;;;5108495;28;20028;-76
2022/08/15 11:18:44;;;;;;;8.68;4.80;;;;;;;;;;5109689;28;20545;-77
2022/08/15 11:21:19;;;;;;;8.68;4.90;;;;;;;;;;5102088;28;20054;-76
2022/08/15 11:23:52;;;;;;;9.18;5.00;;;;;;;;;;5085222;28;20059;-74
2022/08/15 11:26:22;;;;;;;8.85;4.68;;;;;;;;;;5093867;28;20406;-76
2022/08/15 11:28:49;;;;;;;6.97;4.78;;;;;;;;;;5086943;28;20032;-77
2022/08/15 11:31:19;;;;;;;8.23;4.75;;;;;;;;;;5093873;28;20028;-79
2022/08/15 11:33:47;;;;;;;7.05;4.32;;;;;;;;;;5096056;28;20052;-76
2022/08/15 11:36:26;;;;;;;8.40;4.57;;;;;;;;;;5094623;28;20085;-75
2022/08/15 11:38:58;;;;;;;6.68;4.10;;;;;;;;;;5090167;28;20094;-74
2022/08/15 11:41:27;;;;;;;7.37;4.30;;;;;;;;;;5082792;28;20059;-73
2022/08/15 11:43:54;;;;;;;7.20;4.35;;;;;;;;;;5094203;28;20106;-74
2022/08/15 11:46:22;;;;;;;10.88;4.63;;;;;;;;;;5090738;28;20545;-74
2022/08/15 11:48:50;;;;;;;7.65;3.88;;;;;;;;;;5095676;28;20107;-75
2022/08/15 11:51:16;;;;;;;8.88;4.68;;;;;;;;;;5095778;28;20107;-76
2022/08/15 11:54:03;;;;;;;6.45;4.15;;;;;;;;;;5095171;28;20067;-72
2022/08/15 11:56:44;;;;;;;8.20;4.70;;;;;;;;;;5084950;28;20039;-70
2022/08/15 11:59:19;;;;;;;8.45;5.10;;;;;;;;;;5094908;28;20034;-76
2022/08/15 12:02:00;;;;;;;7.78;4.38;;;;;;;;;;5095548;28;20495;-75
2022/08/15 12:04:33;;;;;;;6.63;4.43;;;;;;;;;;5095565;28;20468;-75
2022/08/15 12:07:18;;;;;;;6.65;4.07;;;;;;;;;;5095069;28;20024;-75
2022/08/15 12:09:56;;;;;;;7.45;4.53;;;;;;;;;;5095101;28;20044;-76
2022/08/15 12:12:29;;;;;;;8.45;4.72;;;;;;;;;;5095444;28;20478;-75
2022/08/15 12:15:11;;;;;;;6.07;4.18;;;;;;;;;;5088447;28;20066;-75
2022/08/15 12:17:37;;;;;;;;;;;;;;;;;;5081242;28;20020;-73
2022/08/15 12:20:04;;;;;;;8.98;4.75;;;;;;;;;;5073353;28;19904;-76
2022/08/15 12:22:32;;;;;;;6.55;4.72;;;;;;;;;;5075006;28;20388;-72
2022/08/15 12:24:59;;;;;;;7.82;5.15;;;;;;;;;;5075726;28;20025;-75
2022/08/15 12:27:25;;;;;;;7.15;4.40;;;;;;;;;;5093065;28;20017;-74
2022/08/15 12:29:51;;;;;;;8.30;4.93;;;;;;;;;;5093809;28;20028;-76
2022/08/15 12:32:17;;;;;;;8.75;4.90;;;;;;;;;;5094214;28;20027;-74
2022/08/15 12:34:45;;;;;;;7.30;4.90;;;;;;;;;;5094037;28;20487;-74
2022/08/15 12:37:13;;;;;;;6.97;4.40;;;;;;;;;;5094956;28;20016;-72
2022/08/15 12:39:47;;;;;;;7.13;4.90;;;;;;;;;;5094591;28;20377;-74
2022/08/15 12:42:25;;;;;;;6.50;4.22;;;;;;;;;;5093724;28;20028;-73
2022/08/15 12:44:52;;;;;;;9.02;4.72;;;;;;;;;;5088036;28;20031;-72
2022/08/15 12:47:18;;;;;;;6.97;4.50;;;;;;;;;;5093753;28;20032;-74
2022/08/15 12:49:44;;;;;;;6.63;4.40;;;;;;;;;;5093834;28;20032;-74
2022/08/15 12:52:11;;;;;;;6.90;4.00;;;;;;;;;;5094032;28;20101;-74
2022/08/15 12:54:37;;;;;;;8.70;5.85;;;;;;;;;;5093433;28;20027;-74
2022/08/15 12:57:04;;;;;;;6.40;4.25;;;;;;;;;;5094304;28;20016;-74
2022/08/15 12:59:31;;;;;;;6.63;4.30;;;;;;;;;;5094535;28;20087;-75
2022/08/15 13:01:57;;;;;;;7.55;3.85;;;;;;;;;;5093372;28;20016;-75
2022/08/15 13:04:25;;;;;;;5.50;3.85;;;;;;;;;;5092474;28;20028;-75
2022/08/15 13:06:53;;;;;;;6.85;4.50;;;;;;;;;;5092486;28;20498;-74
2022/08/15 13:09:20;;;;;;;6.93;4.28;;;;;;;;;;5091747;28;20145;-75
2022/08/15 13:11:46;;;;;;;7.80;4.10;;;;;;;;;;5092547;28;20070;-74
2022/08/15 13:14:14;;;;;;;6.15;4.00;;;;;;;;;;5092602;28;20076;-74
2022/08/15 13:16:40;;;;;;;5.43;3.58;;;;;;;;;;5093139;28;20028;-74
2022/08/15 13:19:11;;;;;;;6.68;3.90;;;;;;;;;;5094291;28;20035;-75
2022/08/15 13:24:23;;;;;;;6.65;4.40;;;;;;;;;;5094052;28;20061;-74
2022/08/15 13:26:49;;;;;;;7.57;4.85;;;;;;;;;;5092701;28;20019;-74
2022/08/15 13:29:18;;;;;;;10.48;4.72;;;;;;;;;;5093880;28;20058;-74
2022/08/15 13:31:44;;;;;;;10.68;4.70;;;;;;;;;;5092328;28;20494;-74
2022/08/15 13:34:10;;;;;;;8.27;4.45;;;;;;;;;;5093859;28;20024;-75
2022/08/15 13:36:36;;;;;;;7.75;4.47;;;;;;;;;;5093785;28;20032;-74
2022/08/15 13:39:15;;;;;;;6.50;3.92;;;;;;;;;;5092158;28;20455;-75
2022/08/15 13:41:41;;;;;;;6.30;3.65;;;;;;;;;;5093931;28;20035;-74
2022/08/15 13:44:07;;;;;;;6.53;4.57;;;;;;;;;;5093426;28;20353;-74
2022/08/15 13:46:34;;;;;;;5.95;4.05;;;;;;;;;;5094017;28;20032;-74
2022/08/15 13:49:03;;;;;;;7.30;4.47;;;;;;;;;;5093670;28;20024;-74
2022/08/15 13:51:32;;;;;;;5.40;3.80;;;;;;;;;;5093447;28;20027;-74
2022/08/15 13:54:00;;;;;;;6.45;4.03;;;;;;;;;;5093669;28;20016;-74
2022/08/15 13:56:31;;;;;;;6.88;4.07;;;;;;;;;;5093614;28;20020;-75
2022/08/15 13:58:57;;;;;;;4.97;3.83;;;;;;;;;;5093254;28;20016;-74
2022/08/15 14:01:25;;;;;;;5.90;3.90;;;;;;;;;;5093512;28;20020;-75
2022/08/15 14:04:01;;;;;;;6.63;4.15;;;;;;;;;;5093521;28;20027;-75
2022/08/15 14:06:28;;;;;;;5.28;3.80;;;;;;;;;;5093360;28;20039;-74
2022/08/15 14:08:54;;;;;;;7.13;3.97;;;;;;;;;;5093270;28;20035;-72
2022/08/15 14:11:22;;;;;;;6.78;4.05;;;;;;;;;;5093760;28;20081;-73
2022/08/15 14:13:49;;;;;;;6.07;3.83;;;;;;;;;;5093391;28;20032;-73
2022/08/15 14:16:15;;;;;;;6.90;3.90;;;;;;;;;;5092200;28;20031;-74
2022/08/15 14:18:42;;;;;;;8.80;4.30;;;;;;;;;;5092900;28;20024;-74
2022/08/15 14:21:09;;;;;;;6.20;3.53;;;;;;;;;;5092944;28;20028;-74
2022/08/15 14:23:36;;;;;;;7.60;4.10;;;;;;;;;;5092084;28;20075;-74
2022/08/15 14:26:04;;;;;;;6.68;3.88;;;;;;;;;;5093695;28;20111;-74
2022/08/15 14:28:31;;;;;;;5.78;3.70;;;;;;;;;;5093559;28;20089;-74
2022/08/15 14:30:58;;;;;;;6.63;3.80;;;;;;;;;;5093354;28;20115;-73
2022/08/15 14:33:26;;;;;;;6.65;4.13;;;;;;;;;;5092901;28;20024;-74
2022/08/15 14:35:56;;;;;;;6.05;3.42;;;;;;;;;;5093294;28;20016;-74
2022/08/15 14:38:24;;;;;;;5.88;3.45;;;;;;;;;;5093568;28;20469;-74
2022/08/15 14:40:50;;;;;;;5.85;3.55;;;;;;;;;;5092802;28;20020;-74
2022/08/15 14:43:16;;;;;;;6.30;3.40;;;;;;;;;;5093201;28;20489;-74
2022/08/15 14:45:43;;;;;;;6.30;3.75;;;;;;;;;;5093266;28;20475;-74
2022/08/15 14:48:14;;;;;;;5.88;3.72;;;;;;;;;;5092799;28;20027;-74
2022/08/15 14:50:40;;;;;;;5.60;3.50;;;;;;;;;;5093023;28;20028;-74
2022/08/15 14:53:06;;;;;;;5.95;3.65;;;;;;;;;;5093498;28;20249;-74
2022/08/15 14:55:33;;;;;;;6.13;3.97;;;;;;;;;;5092841;28;20024;-73
2022/08/15 14:58:00;;;;;;;5.57;3.30;;;;;;;;;;5097056;28;20027;-74
2022/08/15 15:00:27;;;;;;;7.07;4.15;;;;;;;;;;5096976;28;20024;-73
2022/08/15 15:02:55;;;;;;;6.32;3.80;;;;;;;;;;5096416;28;20031;-72
2022/08/15 15:05:21;;;;;;;6.28;3.50;;;;;;;;;;5097109;28;20108;-72
2022/08/15 15:07:54;;;;;;;5.85;3.90;;;;;;;;;;5095576;28;20027;-73
2022/08/15 15:10:20;;;;;;;4.90;3.38;;;;;;;;;;5094827;28;20403;-72
2022/08/15 15:12:46;;;;;;;5.80;3.08;;;;;;;;;;5096787;28;20070;-73
2022/08/15 15:15:13;;;;;;;4.82;2.92;;;;;;;;;;5096823;28;20484;-72
2022/08/15 15:17:40;;;;;;;5.03;3.38;;;;;;;;;;5096340;28;20447;-72
2022/08/15 15:20:07;;;;;;;4.72;3.00;;;;;;;;;;5096513;28;20091;-74
2022/08/15 15:22:33;;;;;;;5.45;3.38;;;;;;;;;;5096118;28;20017;-72
2022/08/15 15:24:59;;;;;;;5.20;3.47;;;;;;;;;;5096447;28;20078;-72
2022/08/15 15:27:25;;;;;;;5.32;3.50;;;;;;;;;;5096347;28;20062;-73
2022/08/15 15:29:52;;;;;;;6.45;3.75;;;;;;;;;;5094589;28;20489;-73
2022/08/15 15:32:21;;;;;;;5.53;3.47;;;;;;;;;;5096556;28;20043;-72
2022/08/15 15:34:47;;;;;;;7.75;4.03;;;;;;;;;;5096243;28;20055;-72
2022/08/15 15:37:13;;;;;;;6.13;3.42;;;;;;;;;;5095928;28;20035;-73
2022/08/15 15:39:40;;;;;;;5.00;2.95;;;;;;;;;;5096306;28;20020;-73
2022/08/15 15:42:06;;;;;;;5.22;3.15;;;;;;;;;;5096146;28;20048;-73
2022/08/15 15:44:32;;;;;;;4.22;2.97;;;;;;;;;;5095664;28;20028;-73
2022/08/15 15:47:00;;;;;;;5.15;3.25;;;;;;;;;;5096100;28;20034;-73
2022/08/15 15:49:31;;;;;;;5.28;3.13;;;;;;;;;;5096009;28;20472;-73
2022/08/15 15:51:58;;;;;;;5.57;3.60;;;;;;;;;;5095813;28;20511;-73
2022/08/15 15:54:25;;;;;;;5.13;3.35;;;;;;;;;;5095893;28;20511;-74
2022/08/15 15:56:51;;;;;;;5.68;3.75;;;;;;;;;;5095912;28;20030;-74
2022/08/15 15:59:17;;;;;;;6.22;3.55;;;;;;;;;;5095601;28;20353;-74
2022/08/15 16:01:43;;;;;;;5.57;3.28;;;;;;;;;;5094529;28;20024;-73
2022/08/15 16:04:09;;;;;;;6.03;3.45;;;;;;;;;;5095673;28;20023;-74
2022/08/15 16:06:35;;;;;;;4.75;3.00;;;;;;;;;;5095301;28;20493;-73
2022/08/15 16:09:02;;;;;;;4.63;3.05;;;;;;;;;;5095593;28;20470;-73
2022/08/15 16:11:37;;;;;;;6.43;3.70;;;;;;;;;;5095826;28;20081;-71
2022/08/15 16:14:03;;;;;;;4.93;3.28;;;;;;;;;;5095596;28;20091;-73
2022/08/15 16:16:37;;;;;;;6.75;3.28;;;;;;;;;;5095477;28;20052;-73
2022/08/15 16:19:15;;;;;;;4.80;2.88;;;;;;;;;;5095270;28;20044;-73
2022/08/15 16:21:42;;;;;;;4.75;3.45;;;;;;;;;;5095549;28;20580;-74
2022/08/15 16:24:11;;;;;;;5.82;3.20;;;;;;;;;;5095336;28;20020;-73
2022/08/15 16:27:13;;;;;;;5.68;3.10;;;;;;;;;;5095149;28;20050;-73
2022/08/15 16:30:02;;;;;;;7.20;4.10;;;;;;;;;;5032765;28;20029;-73
2022/08/15 16:32:28;;;;;;;6.13;3.47;;;;;;;;;;5090570;28;20500;-72
2022/08/15 16:34:57;;;;;;;6.45;3.88;;;;;;;;;;5094695;28;20107;-73
2022/08/15 16:37:33;;;;;;;6.72;4.50;;;;;;;;;;5095023;28;20441;-73
2022/08/15 16:40:09;;;;;;;6.15;3.15;;;;;;;;;;5094871;28;20388;-72
2022/08/15 16:42:38;;;;;;;4.32;3.35;;;;;;;;;;5095037;28;20024;-72
2022/08/15 16:45:08;;;;;;;5.63;3.60;;;;;;;;;;5094914;28;20055;-72